Washington, DC

9:24 PM EDT on June 23, 2017 (GMT -0400)
Logan Circle | | Change Station

Elev 108 ft 38.91 °N, 77.03 °W | Updated 3 seconds ago

Partly Cloudy
Partly Cloudy
85.1 °F
Feels Like 96 °F
N
4.0
Wind Variable Wind from South
Gusts 4.9 mph

Today
High -- | Low -- °F
--% Chance of Precip.
Yesterday
High -- | Low -- °F
Precip. -- in
Pressure 29.71 in
Visibility 10.0 miles
Clouds Few 4000 ft
Scattered Clouds 15000 ft
Scattered Clouds 19000 ft
Mostly Cloudy 25000 ft
Heat Index 96 °F
Dew Point 77 °F
Humidity 77%
Rainfall 0.11 in
Snow Depth Not available.
5:43 AM 8:37 PM
Waning Crescent, 0% visible
METAR KDCA 240052Z 20010KT 10SM FEW040 SCT150 SCT190 BKN250 29/23 A2971 RMK AO2 SLP059 T02940233
Pressure 29.71 in
Visibility 10.0 miles
Clouds Few 4000 ft
Scattered Clouds 15000 ft
Scattered Clouds 19000 ft
Mostly Cloudy 25000 ft
Heat Index 96 °F
Dew Point 77 °F
Humidity 77%
Rainfall 0.11 in
Snow Depth Not available.
5:43 AM 8:37 PM
Waning Crescent, 0% visible
METAR KDCA 240052Z 20010KT 10SM FEW040 SCT150 SCT190 BKN250 29/23 A2971 RMK AO2 SLP059 T02940233

Get Severe Weather Alerts

Thanks for signing up!

Be on the lookout for a verification email in your inbox.

You'll start receiving the daily forecast at 6 AM.

×

10-Day Weather Forecast

Almanac

Astronomy

Jun. 23, 2017 Rise Set
Actual Time
Civil Twilight
Nautical Twilight
Astronomical Twilight
Moon
Length of Visible Light
Length of Day
Tomorrow will be .
, % of the Moon is Illuminated

Today's Extremes

State Highs State Lows

Community

WunderPhotos

Category 6

Welcome to Category 6. This is the collective home for Weather Underground's featured writeups by Dr. Jeff Masters (right), Bob Henson (left), Chris Burt, and other regular contributors.

Nearby

Air Quality

  Air Quality AQ Index Pollutant
Not available.

Snow Depth

Station Depth Elevation

Earthquake Activity

City Distance Mag. Time & Date
Minimum magnitude displayed is 2.5.

Coastal Water Temperatures

Place Temperature

Stations

Nearby Weather Stations

Station Location Temp. Windchill Dew Point Humidity Wind Precip. Elev Updated Type
                   

Watches & Warnings

There are currently no watches in effect.